sensor_id;sensor_type;location;lat;lon;timestamp;pressure;altitude;pressure_sealevel;temperature;humidity
61474;BME280;53694;49.784;30.150;2023-02-22T00:00:14;98714.03;;;4.62;63.95
61474;BME280;53694;49.784;30.150;2023-02-22T00:01:16;98710.23;;;4.38;64.31
61474;BME280;53694;49.784;30.150;2023-02-22T00:02:17;98714.91;;;4.13;65.11
61474;BME280;53694;49.784;30.150;2023-02-22T00:03:24;98715.69;;;3.89;65.63
61474;BME280;53694;49.784;30.150;2023-02-22T00:04:24;98716.36;;;3.62;66.32
61474;BME280;53694;49.784;30.150;2023-02-22T00:05:27;98720.81;;;3.33;66.95
61474;BME280;53694;49.784;30.150;2023-02-22T00:06:28;98721.86;;;3.08;67.72
61474;BME280;53694;49.784;30.150;2023-02-22T00:07:30;98723.46;;;2.88;68.62
61474;BME280;53694;49.784;30.150;2023-02-22T00:08:33;98722.81;;;2.70;69.33
61474;BME280;53694;49.784;30.150;2023-02-22T00:09:35;98724.22;;;2.55;70.00
61474;BME280;53694;49.784;30.150;2023-02-22T00:10:37;98719.82;;;2.42;70.48
61474;BME280;53694;49.784;30.150;2023-02-22T00:11:44;98733.31;;;2.30;71.03
61474;BME280;53694;49.784;30.150;2023-02-22T00:12:44;98728.55;;;2.27;71.43
61474;BME280;53694;49.784;30.150;2023-02-22T00:13:45;98729.42;;;2.39;71.52
61474;BME280;53694;49.784;30.150;2023-02-22T00:14:47;98727.66;;;2.64;71.13
61474;BME280;53694;49.784;30.150;2023-02-22T00:15:49;98737.42;;;2.98;70.10
61474;BME280;53694;49.784;30.150;2023-02-22T00:16:50;98731.67;;;3.33;68.68
61474;BME280;53694;49.784;30.150;2023-02-22T00:17:55;98731.28;;;3.68;67.75
61474;BME280;53694;49.784;30.150;2023-02-22T00:18:56;98730.06;;;4.02;66.63
61474;BME280;53694;49.784;30.150;2023-02-22T00:19:58;98739.91;;;4.31;65.53
61474;BME280;53694;49.784;30.150;2023-02-22T00:21:00;98733.56;;;4.39;64.80
61474;BME280;53694;49.784;30.150;2023-02-22T00:22:02;98737.63;;;4.33;64.61
61474;BME280;53694;49.784;30.150;2023-02-22T00:23:07;98739.92;;;4.19;64.79
61474;BME280;53694;49.784;30.150;2023-02-22T00:24:09;98739.23;;;3.97;65.27
61474;BME280;53694;49.784;30.150;2023-02-22T00:25:14;98738.54;;;3.76;65.98
61474;BME280;53694;49.784;30.150;2023-02-22T00:26:19;98740.54;;;3.55;66.68
61474;BME280;53694;49.784;30.150;2023-02-22T00:27:21;98750.31;;;3.35;67.21
61474;BME280;53694;49.784;30.150;2023-02-22T00:28:23;98744.01;;;3.10;67.96
61474;BME280;53694;49.784;30.150;2023-02-22T00:29:24;98744.84;;;2.89;68.78
61474;BME280;53694;49.784;30.150;2023-02-22T00:30:28;98751.20;;;2.72;69.41
61474;BME280;53694;49.784;30.150;2023-02-22T00:31:30;98759.11;;;2.57;70.06
61474;BME280;53694;49.784;30.150;2023-02-22T00:32:31;98754.94;;;2.38;70.88
61474;BME280;53694;49.784;30.150;2023-02-22T00:33:33;98758.65;;;2.25;71.52
61474;BME280;53694;49.784;30.150;2023-02-22T00:34:35;98764.27;;;2.20;72.07
61474;BME280;53694;49.784;30.150;2023-02-22T00:35:36;98760.41;;;2.30;72.15
61474;BME280;53694;49.784;30.150;2023-02-22T00:36:38;98764.05;;;2.55;71.76
61474;BME280;53694;49.784;30.150;2023-02-22T00:37:39;98768.77;;;2.87;71.03
61474;BME280;53694;49.784;30.150;2023-02-22T00:38:41;98762.73;;;3.23;70.00
61474;BME280;53694;49.784;30.150;2023-02-22T00:39:48;98762.04;;;3.60;68.87
61474;BME280;53694;49.784;30.150;2023-02-22T00:40:50;98759.71;;;3.95;67.61
61474;BME280;53694;49.784;30.150;2023-02-22T00:41:52;98767.88;;;4.32;66.12
61474;BME280;53694;49.784;30.150;2023-02-22T00:42:53;98774.45;;;4.55;64.75
61474;BME280;53694;49.784;30.150;2023-02-22T00:43:55;98776.14;;;4.60;64.13
61474;BME280;53694;49.784;30.150;2023-02-22T00:44:56;98775.13;;;4.52;63.87
61474;BME280;53694;49.784;30.150;2023-02-22T00:45:57;98775.36;;;4.35;63.81
61474;BME280;53694;49.784;30.150;2023-02-22T00:46:59;98768.00;;;4.11;64.36
61474;BME280;53694;49.784;30.150;2023-02-22T00:48:03;98768.66;;;3.83;65.03
61474;BME280;53694;49.784;30.150;2023-02-22T00:49:05;98768.95;;;3.57;65.88
61474;BME280;53694;49.784;30.150;2023-02-22T00:50:07;98781.65;;;3.32;66.81
61474;BME280;53694;49.784;30.150;2023-02-22T00:51:09;98791.73;;;3.11;67.55
61474;BME280;53694;49.784;30.150;2023-02-22T00:52:10;98781.99;;;2.89;68.41
61474;BME280;53694;49.784;30.150;2023-02-22T00:53:12;98797.15;;;2.69;69.08
61474;BME280;53694;49.784;30.150;2023-02-22T00:54:13;98785.28;;;2.53;69.83
61474;BME280;53694;49.784;30.150;2023-02-22T00:55:23;98794.45;;;2.39;70.50
61474;BME280;53694;49.784;30.150;2023-02-22T00:56:25;98787.36;;;2.26;70.77
61474;BME280;53694;49.784;30.150;2023-02-22T00:57:27;98799.67;;;2.15;71.33
61474;BME280;53694;49.784;30.150;2023-02-22T00:58:28;98798.39;;;2.12;71.65
61474;BME280;53694;49.784;30.150;2023-02-22T00:59:30;98791.16;;;2.25;71.80
61474;BME280;53694;49.784;30.150;2023-02-22T01:00:37;98800.61;;;2.48;71.17
61474;BME280;53694;49.784;30.150;2023-02-22T01:01:39;98799.94;;;2.81;70.15
61474;BME280;53694;49.784;30.150;2023-02-22T01:02:42;98801.72;;;3.19;69.41
61474;BME280;53694;49.784;30.150;2023-02-22T01:03:43;98795.19;;;3.53;67.65
61474;BME280;53694;49.784;30.150;2023-02-22T01:04:45;98807.13;;;3.85;66.50
61474;BME280;53694;49.784;30.150;2023-02-22T01:05:46;98810.33;;;4.12;65.71
61474;BME280;53694;49.784;30.150;2023-02-22T01:06:48;98804.47;;;4.22;64.86
61474;BME280;53694;49.784;30.150;2023-02-22T01:07:50;98807.07;;;4.18;64.51
61474;BME280;53694;49.784;30.150;2023-02-22T01:08:51;98814.41;;;4.06;64.43
61474;BME280;53694;49.784;30.150;2023-02-22T01:09:53;98811.11;;;3.88;65.03
61474;BME280;53694;49.784;30.150;2023-02-22T01:10:54;98812.41;;;3.69;65.49
61474;BME280;53694;49.784;30.150;2023-02-22T01:11:56;98822.20;;;3.49;65.92
61474;BME280;53694;49.784;30.150;2023-02-22T01:12:59;98826.07;;;3.28;66.70
61474;BME280;53694;49.784;30.150;2023-02-22T01:14:00;98834.66;;;3.09;67.69
61474;BME280;53694;49.784;30.150;2023-02-22T01:15:03;98832.28;;;2.86;69.36
61474;BME280;53694;49.784;30.150;2023-02-22T01:16:06;98835.30;;;2.64;70.86
61474;BME280;53694;49.784;30.150;2023-02-22T01:17:07;98841.45;;;2.43;72.13
61474;BME280;53694;49.784;30.150;2023-02-22T01:18:09;98846.95;;;2.26;73.49
61474;BME280;53694;49.784;30.150;2023-02-22T01:19:11;98845.86;;;2.18;74.85
61474;BME280;53694;49.784;30.150;2023-02-22T01:20:12;98843.77;;;2.24;75.83
61474;BME280;53694;49.784;30.150;2023-02-22T01:21:14;98842.59;;;2.42;75.87
61474;BME280;53694;49.784;30.150;2023-02-22T01:22:15;98848.02;;;2.72;75.66
61474;BME280;53694;49.784;30.150;2023-02-22T01:23:17;98846.17;;;3.06;74.98
61474;BME280;53694;49.784;30.150;2023-02-22T01:24:18;98837.78;;;3.40;74.00
61474;BME280;53694;49.784;30.150;2023-02-22T01:25:22;98841.95;;;3.71;72.99
61474;BME280;53694;49.784;30.150;2023-02-22T01:26:24;98841.33;;;3.98;72.06
61474;BME280;53694;49.784;30.150;2023-02-22T01:27:25;98851.70;;;4.30;70.87
61474;BME280;53694;49.784;30.150;2023-02-22T01:28:26;98848.19;;;4.54;69.74
61474;BME280;53694;49.784;30.150;2023-02-22T01:29:28;98850.11;;;4.78;68.63
61474;BME280;53694;49.784;30.150;2023-02-22T01:30:31;98846.79;;;4.96;67.49
61474;BME280;53694;49.784;30.150;2023-02-22T01:31:33;98848.70;;;5.08;66.30
61474;BME280;53694;49.784;30.150;2023-02-22T01:32:35;98848.70;;;5.08;66.49
61474;BME280;53694;49.784;30.150;2023-02-22T01:33:37;98853.73;;;4.94;66.37
61474;BME280;53694;49.784;30.150;2023-02-22T01:34:40;98856.34;;;4.66;66.71
61474;BME280;53694;49.784;30.150;2023-02-22T01:35:42;98858.14;;;4.37;67.23
61474;BME280;53694;49.784;30.150;2023-02-22T01:36:43;98857.89;;;4.06;67.76
61474;BME280;53694;49.784;30.150;2023-02-22T01:37:45;98853.95;;;3.70;68.18
61474;BME280;53694;49.784;30.150;2023-02-22T01:38:46;98867.50;;;3.37;69.19
61474;BME280;53694;49.784;30.150;2023-02-22T01:39:47;98872.50;;;3.05;70.20
61474;BME280;53694;49.784;30.150;2023-02-22T01:40:49;98871.28;;;2.73;71.30
61474;BME280;53694;49.784;30.150;2023-02-22T01:41:51;98872.66;;;2.49;72.31
61474;BME280;53694;49.784;30.150;2023-02-22T01:42:56;98877.52;;;2.35;73.25
61474;BME280;53694;49.784;30.150;2023-02-22T01:44:15;98876.88;;;2.38;73.73
61474;BME280;53694;49.784;30.150;2023-02-22T01:46:31;98882.34;;;2.89;73.20
61474;BME280;53694;49.784;30.150;2023-02-22T01:47:33;98877.56;;;3.36;71.74
61474;BME280;53694;49.784;30.150;2023-02-22T01:48:43;98881.77;;;3.67;70.46
61474;BME280;53694;49.784;30.150;2023-02-22T01:49:47;98885.15;;;3.97;69.64
61474;BME280;53694;49.784;30.150;2023-02-22T01:52:09;98887.84;;;4.67;67.27
61474;BME280;53694;49.784;30.150;2023-02-22T01:53:13;98888.20;;;4.90;65.79
61474;BME280;53694;49.784;30.150;2023-02-22T01:55:21;98886.73;;;4.68;65.15
61474;BME280;53694;49.784;30.150;2023-02-22T01:56:25;98891.02;;;4.44;65.66
61474;BME280;53694;49.784;30.150;2023-02-22T01:57:30;98893.69;;;4.20;66.06
61474;BME280;53694;49.784;30.150;2023-02-22T01:58:34;98903.64;;;3.49;67.63
61474;BME280;53694;49.784;30.150;2023-02-22T01:59:39;98903.64;;;3.49;67.63
61474;BME280;53694;49.784;30.150;2023-02-22T02:00:42;98900.50;;;3.18;68.41
61474;BME280;53694;49.784;30.150;2023-02-22T02:01:43;98902.59;;;2.91;69.58
61474;BME280;53694;49.784;30.150;2023-02-22T02:02:49;98911.32;;;2.67;70.48
61474;BME280;53694;49.784;30.150;2023-02-22T02:03:52;98903.79;;;2.43;71.06
61474;BME280;53694;49.784;30.150;2023-02-22T02:04:56;98906.28;;;2.10;73.10
61474;BME280;53694;49.784;30.150;2023-02-22T02:06:00;98906.28;;;2.10;73.10
61474;BME280;53694;49.784;30.150;2023-02-22T02:07:05;98909.60;;;2.16;73.01
61474;BME280;53694;49.784;30.150;2023-02-22T02:08:34;98915.91;;;2.37;72.83
61474;BME280;53694;49.784;30.150;2023-02-22T02:09:55;98924.42;;;2.65;71.89
61474;BME280;53694;49.784;30.150;2023-02-22T02:10:57;98920.83;;;3.12;70.86
61474;BME280;53694;49.784;30.150;2023-02-22T02:12:00;98928.31;;;3.57;69.44
61474;BME280;53694;49.784;30.150;2023-02-22T02:13:02;98923.05;;;3.93;68.37
61474;BME280;53694;49.784;30.150;2023-02-22T02:14:03;98920.98;;;4.23;67.08
61474;BME280;53694;49.784;30.150;2023-02-22T02:15:26;98926.01;;;4.46;66.03
61474;BME280;53694;49.784;30.150;2023-02-22T02:16:34;98928.19;;;4.53;65.32
61474;BME280;53694;49.784;30.150;2023-02-22T02:17:33;98926.80;;;4.34;64.36
61474;BME280;53694;49.784;30.150;2023-02-22T02:18:35;98935.11;;;4.05;65.14
61474;BME280;53694;49.784;30.150;2023-02-22T02:19:47;98928.64;;;3.76;65.75
61474;BME280;53694;49.784;30.150;2023-02-22T02:23:37;98950.96;;;2.89;68.85
61474;BME280;53694;49.784;30.150;2023-02-22T02:34:18;98963.28;;;2.78;66.68
61474;BME280;53694;49.784;30.150;2023-02-22T02:35:34;98969.12;;;3.18;65.66
61474;BME280;53694;49.784;30.150;2023-02-22T02:36:52;98963.67;;;3.48;64.25
61474;BME280;53694;49.784;30.150;2023-02-22T02:39:34;98964.30;;;3.54;62.34
61474;BME280;53694;49.784;30.150;2023-02-22T02:40:50;98963.34;;;3.29;62.42
61474;BME280;53694;49.784;30.150;2023-02-22T02:41:51;98964.48;;;2.98;63.16
61474;BME280;53694;49.784;30.150;2023-02-22T02:45:16;98964.27;;;2.18;65.24
61474;BME280;53694;49.784;30.150;2023-02-22T02:46:44;98971.47;;;1.96;65.87
61474;BME280;53694;49.784;30.150;2023-02-22T02:47:48;98976.90;;;1.70;66.62
61474;BME280;53694;49.784;30.150;2023-02-22T02:48:53;98977.51;;;1.41;68.06
61474;BME280;53694;49.784;30.150;2023-02-22T02:49:59;98982.39;;;1.22;69.20
61474;BME280;53694;49.784;30.150;2023-02-22T02:51:02;98984.73;;;1.06;69.72
61474;BME280;53694;49.784;30.150;2023-02-22T02:52:06;98988.53;;;0.96;70.35
61474;BME280;53694;49.784;30.150;2023-02-22T02:53:10;98987.38;;;0.89;70.91
61474;BME280;53694;49.784;30.150;2023-02-22T02:54:15;98988.14;;;0.81;71.28
61474;BME280;53694;49.784;30.150;2023-02-22T02:55:17;98995.96;;;0.82;71.46
61474;BME280;53694;49.784;30.150;2023-02-22T02:56:20;98984.70;;;0.97;71.49
61474;BME280;53694;49.784;30.150;2023-02-22T02:57:22;98998.00;;;1.25;70.78
61474;BME280;53694;49.784;30.150;2023-02-22T02:58:23;99001.25;;;1.62;69.76
61474;BME280;53694;49.784;30.150;2023-02-22T02:59:34;98996.47;;;2.02;68.64
61474;BME280;53694;49.784;30.150;2023-02-22T03:00:38;99000.08;;;2.41;67.39
61474;BME280;53694;49.784;30.150;2023-02-22T03:01:50;98991.04;;;2.75;65.44
61474;BME280;53694;49.784;30.150;2023-02-22T03:03:21;99005.20;;;2.89;64.82
61474;BME280;53694;49.784;30.150;2023-02-22T03:07:19;99015.11;;;2.21;66.00
61474;BME280;53694;49.784;30.150;2023-02-22T03:08:34;99015.11;;;2.21;66.00
61474;BME280;53694;49.784;30.150;2023-02-22T03:09:44;99011.93;;;1.93;66.83
61474;BME280;53694;49.784;30.150;2023-02-22T03:10:54;99018.59;;;1.69;67.49
61474;BME280;53694;49.784;30.150;2023-02-22T03:14:48;99028.52;;;1.17;69.02
61474;BME280;53694;49.784;30.150;2023-02-22T03:20:19;99039.92;;;0.65;70.72
61474;BME280;53694;49.784;30.150;2023-02-22T03:21:30;99046.59;;;0.68;71.23
61474;BME280;53694;49.784;30.150;2023-02-22T03:22:42;99049.13;;;0.95;71.21
61474;BME280;53694;49.784;30.150;2023-02-22T03:25:16;99048.37;;;1.78;68.80
61474;BME280;53694;49.784;30.150;2023-02-22T03:26:21;99055.09;;;2.24;67.46
61474;BME280;53694;49.784;30.150;2023-02-22T03:27:27;99055.19;;;2.62;66.05
61474;BME280;53694;49.784;30.150;2023-02-22T03:28:29;99054.08;;;2.72;64.67
61474;BME280;53694;49.784;30.150;2023-02-22T03:29:33;99059.64;;;2.67;64.63
61474;BME280;53694;49.784;30.150;2023-02-22T03:30:47;99062.39;;;2.49;64.42
61474;BME280;53694;49.784;30.150;2023-02-22T03:31:54;99064.50;;;2.27;65.19
61474;BME280;53694;49.784;30.150;2023-02-22T03:33:12;99071.34;;;2.07;65.99
61474;BME280;53694;49.784;30.150;2023-02-22T03:34:15;99072.45;;;1.88;66.83
61474;BME280;53694;49.784;30.150;2023-02-22T03:35:21;99081.80;;;1.65;67.10
61474;BME280;53694;49.784;30.150;2023-02-22T03:36:29;99069.80;;;1.40;67.78
61474;BME280;53694;49.784;30.150;2023-02-22T03:37:35;99073.56;;;1.21;68.48
61474;BME280;53694;49.784;30.150;2023-02-22T03:38:38;99074.29;;;1.05;69.15
61474;BME280;53694;49.784;30.150;2023-02-22T03:39:43;99077.42;;;0.89;69.88
61474;BME280;53694;49.784;30.150;2023-02-22T03:40:48;99082.09;;;0.75;70.70
61474;BME280;53694;49.784;30.150;2023-02-22T03:41:51;99083.77;;;0.62;71.30
61474;BME280;53694;49.784;30.150;2023-02-22T03:42:56;99090.23;;;0.53;71.57
61474;BME280;53694;49.784;30.150;2023-02-22T03:44:06;99092.42;;;0.50;71.97
61474;BME280;53694;49.784;30.150;2023-02-22T03:45:09;99087.77;;;0.65;71.48
61474;BME280;53694;49.784;30.150;2023-02-22T03:46:13;99084.75;;;0.97;70.97
61474;BME280;53694;49.784;30.150;2023-02-22T03:47:21;99088.70;;;1.31;69.51
61474;BME280;53694;49.784;30.150;2023-02-22T03:48:38;99094.09;;;1.71;68.71
61474;BME280;53694;49.784;30.150;2023-02-22T03:49:47;99096.52;;;2.16;67.67
61474;BME280;53694;49.784;30.150;2023-02-22T03:50:48;99088.86;;;2.53;65.77
61474;BME280;53694;49.784;30.150;2023-02-22T03:51:50;99100.16;;;2.63;64.54
61474;BME280;53694;49.784;30.150;2023-02-22T03:52:52;99104.66;;;2.59;64.61
61474;BME280;53694;49.784;30.150;2023-02-22T03:53:54;99105.59;;;2.46;64.56
61474;BME280;53694;49.784;30.150;2023-02-22T03:54:56;99107.05;;;2.26;63.77
61474;BME280;53694;49.784;30.150;2023-02-22T03:55:59;99111.51;;;2.05;64.50
61474;BME280;53694;49.784;30.150;2023-02-22T03:57:11;99114.32;;;1.82;65.13
61474;BME280;53694;49.784;30.150;2023-02-22T03:58:13;99114.94;;;1.62;66.04
61474;BME280;53694;49.784;30.150;2023-02-22T03:59:16;99112.80;;;1.41;66.96
61474;BME280;53694;49.784;30.150;2023-02-22T04:00:21;99107.79;;;1.26;67.65
61474;BME280;53694;49.784;30.150;2023-02-22T04:01:24;99115.22;;;1.12;67.74
61474;BME280;53694;49.784;30.150;2023-02-22T04:02:26;99117.84;;;0.94;68.28
61474;BME280;53694;49.784;30.150;2023-02-22T04:03:27;99127.12;;;0.80;68.71
61474;BME280;53694;49.784;30.150;2023-02-22T04:04:29;99123.38;;;0.67;69.19
61474;BME280;53694;49.784;30.150;2023-02-22T04:05:30;99128.53;;;0.55;69.62
61474;BME280;53694;49.784;30.150;2023-02-22T04:06:32;99127.67;;;0.45;69.92
61474;BME280;53694;49.784;30.150;2023-02-22T04:07:34;99126.50;;;0.38;70.15
61474;BME280;53694;49.784;30.150;2023-02-22T04:08:35;99121.54;;;0.31;70.48
61474;BME280;53694;49.784;30.150;2023-02-22T04:09:37;99127.06;;;0.26;70.79
61474;BME280;53694;49.784;30.150;2023-02-22T04:10:39;99133.74;;;0.29;71.09
61474;BME280;53694;49.784;30.150;2023-02-22T04:11:40;99134.67;;;0.46;70.73
61474;BME280;53694;49.784;30.150;2023-02-22T04:12:42;99134.56;;;0.74;70.07
61474;BME280;53694;49.784;30.150;2023-02-22T04:13:43;99134.29;;;1.07;69.12
61474;BME280;53694;49.784;30.150;2023-02-22T04:14:45;99129.67;;;1.47;67.67
61474;BME280;53694;49.784;30.150;2023-02-22T04:15:46;99136.95;;;1.86;66.66
61474;BME280;53694;49.784;30.150;2023-02-22T04:16:48;99136.06;;;2.17;65.12
61474;BME280;53694;49.784;30.150;2023-02-22T04:17:49;99141.33;;;2.31;64.34
61474;BME280;53694;49.784;30.150;2023-02-22T04:18:51;99137.48;;;2.32;63.99
61474;BME280;53694;49.784;30.150;2023-02-22T04:19:53;99139.08;;;2.24;63.95
61474;BME280;53694;49.784;30.150;2023-02-22T04:20:54;99140.65;;;2.08;63.43
61474;BME280;53694;49.784;30.150;2023-02-22T04:21:56;99136.95;;;1.86;64.22
61474;BME280;53694;49.784;30.150;2023-02-22T04:22:58;99148.67;;;1.64;64.95
61474;BME280;53694;49.784;30.150;2023-02-22T04:23:59;99145.44;;;1.45;65.59
61474;BME280;53694;49.784;30.150;2023-02-22T04:25:01;99145.66;;;1.26;65.95
61474;BME280;53694;49.784;30.150;2023-02-22T04:26:02;99153.51;;;1.05;66.63
61474;BME280;53694;49.784;30.150;2023-02-22T04:27:04;99154.70;;;0.90;67.27
61474;BME280;53694;49.784;30.150;2023-02-22T04:28:05;99151.77;;;0.78;67.76
61474;BME280;53694;49.784;30.150;2023-02-22T04:29:07;99158.03;;;0.65;68.30
61474;BME280;53694;49.784;30.150;2023-02-22T04:30:09;99152.69;;;0.51;69.03
61474;BME280;53694;49.784;30.150;2023-02-22T04:31:11;99152.12;;;0.40;69.72
61474;BME280;53694;49.784;30.150;2023-02-22T04:32:12;99155.55;;;0.32;70.17
61474;BME280;53694;49.784;30.150;2023-02-22T04:33:14;99165.95;;;0.25;70.31
61474;BME280;53694;49.784;30.150;2023-02-22T04:34:15;99159.08;;;0.19;70.76
61474;BME280;53694;49.784;30.150;2023-02-22T04:35:17;99163.37;;;0.20;70.95
61474;BME280;53694;49.784;30.150;2023-02-22T04:36:19;99160.03;;;0.37;70.96
61474;BME280;53694;49.784;30.150;2023-02-22T04:37:20;99165.34;;;0.64;70.69
61474;BME280;53694;49.784;30.150;2023-02-22T04:38:23;99168.28;;;0.99;69.77
61474;BME280;53694;49.784;30.150;2023-02-22T04:39:24;99159.73;;;1.37;68.82
61474;BME280;53694;49.784;30.150;2023-02-22T04:40:26;99162.09;;;1.78;67.52
61474;BME280;53694;49.784;30.150;2023-02-22T04:41:28;99166.64;;;2.09;66.50
61474;BME280;53694;49.784;30.150;2023-02-22T04:42:29;99159.62;;;2.25;65.39
61474;BME280;53694;49.784;30.150;2023-02-22T04:43:31;99173.50;;;2.23;64.79
61474;BME280;53694;49.784;30.150;2023-02-22T04:44:33;99167.61;;;2.13;65.10
61474;BME280;53694;49.784;30.150;2023-02-22T04:45:34;99164.87;;;1.95;64.86
61474;BME280;53694;49.784;30.150;2023-02-22T04:46:36;99164.95;;;1.73;65.59
61474;BME280;53694;49.784;30.150;2023-02-22T04:47:37;99167.12;;;1.54;66.43
61474;BME280;53694;49.784;30.150;2023-02-22T04:48:39;99174.05;;;1.37;66.97
61474;BME280;53694;49.784;30.150;2023-02-22T04:49:41;99176.17;;;1.18;67.59
61474;BME280;53694;49.784;30.150;2023-02-22T04:50:42;99181.98;;;1.03;68.41
61474;BME280;53694;49.784;30.150;2023-02-22T04:51:44;99188.55;;;0.88;69.01
61474;BME280;53694;49.784;30.150;2023-02-22T04:52:45;99185.92;;;0.74;69.50
61474;BME280;53694;49.784;30.150;2023-02-22T04:53:47;99183.28;;;0.60;69.96
61474;BME280;53694;49.784;30.150;2023-02-22T04:54:48;99188.70;;;0.46;70.48
61474;BME280;53694;49.784;30.150;2023-02-22T04:55:50;99192.44;;;0.37;70.87
61474;BME280;53694;49.784;30.150;2023-02-22T04:56:51;99184.27;;;0.28;71.30
61474;BME280;53694;49.784;30.150;2023-02-22T04:57:54;99192.05;;;0.30;71.85
61474;BME280;53694;49.784;30.150;2023-02-22T04:58:55;99192.52;;;0.45;71.99
61474;BME280;53694;49.784;30.150;2023-02-22T04:59:57;99191.33;;;0.74;71.41
61474;BME280;53694;49.784;30.150;2023-02-22T05:00:59;99185.83;;;1.10;70.72
61474;BME280;53694;49.784;30.150;2023-02-22T05:02:01;99189.39;;;1.50;69.24
61474;BME280;53694;49.784;30.150;2023-02-22T05:03:03;99189.36;;;1.90;68.10
61474;BME280;53694;49.784;30.150;2023-02-22T05:04:05;99195.34;;;2.27;66.49
61474;BME280;53694;49.784;30.150;2023-02-22T05:05:07;99191.23;;;2.56;65.15
61474;BME280;53694;49.784;30.150;2023-02-22T05:06:09;99196.00;;;2.67;64.39
61474;BME280;53694;49.784;30.150;2023-02-22T05:07:11;99197.45;;;2.65;63.75
61474;BME280;53694;49.784;30.150;2023-02-22T05:08:12;99198.08;;;2.53;63.70
61474;BME280;53694;49.784;30.150;2023-02-22T05:09:14;99198.86;;;2.36;63.42
61474;BME280;53694;49.784;30.150;2023-02-22T05:10:16;99210.13;;;2.12;64.09
61474;BME280;53694;49.784;30.150;2023-02-22T05:11:18;99207.84;;;1.88;64.93
61474;BME280;53694;49.784;30.150;2023-02-22T05:12:19;99213.34;;;1.66;65.30
61474;BME280;53694;49.784;30.150;2023-02-22T05:13:20;99213.88;;;1.45;65.89
61474;BME280;53694;49.784;30.150;2023-02-22T05:14:22;99216.98;;;1.30;66.19
61474;BME280;53694;49.784;30.150;2023-02-22T05:15:23;99225.50;;;1.15;66.59
61474;BME280;53694;49.784;30.150;2023-02-22T05:16:25;99222.36;;;0.99;67.22
61474;BME280;53694;49.784;30.150;2023-02-22T05:17:27;99228.91;;;0.84;67.63
61474;BME280;53694;49.784;30.150;2023-02-22T05:18:28;99224.08;;;0.72;68.03
61474;BME280;53694;49.784;30.150;2023-02-22T05:19:30;99234.30;;;0.62;68.56
61474;BME280;53694;49.784;30.150;2023-02-22T05:20:33;99233.91;;;0.55;69.02
61474;BME280;53694;49.784;30.150;2023-02-22T05:21:35;99232.76;;;0.47;69.26
61474;BME280;53694;49.784;30.150;2023-02-22T05:22:36;99238.87;;;0.39;69.17
61474;BME280;53694;49.784;30.150;2023-02-22T05:23:38;99232.28;;;0.31;69.38
61474;BME280;53694;49.784;30.150;2023-02-22T05:24:39;99234.58;;;0.24;69.59
61474;BME280;53694;49.784;30.150;2023-02-22T05:25:41;99236.88;;;0.17;69.95
61474;BME280;53694;49.784;30.150;2023-02-22T05:26:43;99242.39;;;0.12;70.13
61474;BME280;53694;49.784;30.150;2023-02-22T05:27:55;99244.41;;;0.06;70.49
61474;BME280;53694;49.784;30.150;2023-02-22T05:28:53;99245.00;;;0.03;70.36
61474;BME280;53694;49.784;30.150;2023-02-22T05:29:54;99243.02;;;0.09;70.73
61474;BME280;53694;49.784;30.150;2023-02-22T05:30:56;99253.69;;;0.28;70.29
61474;BME280;53694;49.784;30.150;2023-02-22T05:31:58;99244.44;;;0.56;69.19
61474;BME280;53694;49.784;30.150;2023-02-22T05:32:59;99254.61;;;0.95;68.48
61474;BME280;53694;49.784;30.150;2023-02-22T05:34:01;99250.92;;;1.36;67.37
61474;BME280;53694;49.784;30.150;2023-02-22T05:35:03;99249.19;;;1.71;66.09
61474;BME280;53694;49.784;30.150;2023-02-22T05:36:05;99250.85;;;1.90;64.88
61474;BME280;53694;49.784;30.150;2023-02-22T05:37:07;99254.23;;;1.95;63.57
61474;BME280;53694;49.784;30.150;2023-02-22T05:38:11;99247.67;;;1.88;63.48
61474;BME280;53694;49.784;30.150;2023-02-22T05:39:13;99265.25;;;1.68;62.78
61474;BME280;53694;49.784;30.150;2023-02-22T05:40:21;99258.77;;;1.46;63.72
61474;BME280;53694;49.784;30.150;2023-02-22T05:41:23;99266.28;;;1.27;64.32
61474;BME280;53694;49.784;30.150;2023-02-22T05:42:24;99262.00;;;1.04;64.76
61474;BME280;53694;49.784;30.150;2023-02-22T05:43:26;99267.27;;;0.86;65.67
61474;BME280;53694;49.784;30.150;2023-02-22T05:44:27;99254.41;;;0.69;66.31
61474;BME280;53694;49.784;30.150;2023-02-22T05:45:29;99264.44;;;0.55;67.06
61474;BME280;53694;49.784;30.150;2023-02-22T05:46:30;99270.38;;;0.43;67.55
61474;BME280;53694;49.784;30.150;2023-02-22T05:47:32;99269.78;;;0.33;68.04
61474;BME280;53694;49.784;30.150;2023-02-22T05:48:34;99268.59;;;0.25;68.47
61474;BME280;53694;49.784;30.150;2023-02-22T05:49:35;99269.80;;;0.19;69.09
61474;BME280;53694;49.784;30.150;2023-02-22T05:50:37;99276.70;;;0.11;69.52
61474;BME280;53694;49.784;30.150;2023-02-22T05:51:38;99278.71;;;0.06;70.14
61474;BME280;53694;49.784;30.150;2023-02-22T05:52:40;99273.91;;;0.03;70.34
61474;BME280;53694;49.784;30.150;2023-02-22T05:53:41;99279.61;;;0.01;70.72
61474;BME280;53694;49.784;30.150;2023-02-22T05:54:43;99275.22;;;0.05;70.78
61474;BME280;53694;49.784;30.150;2023-02-22T05:55:44;99278.91;;;0.23;70.45
61474;BME280;53694;49.784;30.150;2023-02-22T05:56:46;99289.06;;;0.54;70.03
61474;BME280;53694;49.784;30.150;2023-02-22T05:57:48;99288.77;;;0.91;69.34
61474;BME280;53694;49.784;30.150;2023-02-22T05:58:50;99282.52;;;1.27;68.53
61474;BME280;53694;49.784;30.150;2023-02-22T05:59:52;99297.45;;;1.78;67.11
61474;BME280;53694;49.784;30.150;2023-02-22T06:00:54;99294.42;;;2.11;65.85
61474;BME280;53694;49.784;30.150;2023-02-22T06:01:55;99296.90;;;2.30;64.73
61474;BME280;53694;49.784;30.150;2023-02-22T06:03:07;99295.62;;;2.36;64.16
61474;BME280;53694;49.784;30.150;2023-02-22T06:04:05;99288.91;;;2.33;63.91
61474;BME280;53694;49.784;30.150;2023-02-22T06:05:07;99293.34;;;2.20;64.14
61474;BME280;53694;49.784;30.150;2023-02-22T06:06:10;99296.48;;;2.05;64.13
61474;BME280;53694;49.784;30.150;2023-02-22T06:07:12;99298.33;;;1.87;64.70